Time;durP1;ratioP1;P1;durP2;ratioP2;P2;SDS_P1;SDS_P2;PMS_P1;PMS_P2;Temp;Humidity;BMP_temperature;BMP_pressure;BME280_temperature;BME280_humidity;BME280_pressure;Samples;Min_cycle;Max_cycle;Signal;HPM_P1;HPM_P2
2022/10/14 00:02:04;;;;;;;31.90;19.35;;;9.20;99.90;;;;;;5112642;28;20384;-72
2022/10/14 00:04:30;;;;;;;34.00;20.50;;;9.30;99.90;;;;;;5113814;28;20028;-73
2022/10/14 00:06:56;;;;;;;32.35;19.75;;;9.30;99.90;;;;;;5112430;28;20062;-74
2022/10/14 00:09:22;;;;;;;37.03;19.45;;;9.20;99.90;;;;;;5102370;28;20028;-75
2022/10/14 00:11:48;;;;;;;32.05;19.73;;;9.20;99.90;;;;;;5095923;28;20040;-74
2022/10/14 00:14:17;;;;;;;30.90;20.80;;;9.20;99.90;;;;;;5103814;28;20016;-71
2022/10/14 00:16:44;;;;;;;31.88;19.77;;;9.20;99.90;;;;;;5101679;28;20109;-74
2022/10/14 00:19:11;;;;;;;28.35;18.75;;;9.20;99.90;;;;;;5096248;28;20028;-71
2022/10/14 00:21:38;;;;;;;30.73;19.25;;;9.20;99.90;;;;;;5097389;28;20384;-74
2022/10/14 00:24:05;;;;;;;32.60;19.05;;;9.20;99.90;;;;;;5097418;28;20020;-74
2022/10/14 00:26:34;;;;;;;28.27;18.77;;;9.10;99.90;;;;;;5097158;28;20032;-71
2022/10/14 00:29:01;;;;;;;31.63;19.00;;;9.10;99.90;;;;;;5097393;28;20434;-74
2022/10/14 00:31:27;;;;;;;28.15;17.13;;;9.10;99.90;;;;;;5106807;28;20020;-74
2022/10/14 00:33:53;;;;;;;31.75;18.95;;;9.10;99.90;;;;;;5117452;28;20074;-74
2022/10/14 00:36:21;;;;;;;30.42;20.17;;;9.10;99.90;;;;;;5116190;28;20043;-74
2022/10/14 00:38:47;;;;;;;29.05;17.95;;;9.10;99.90;;;;;;5117613;28;20031;-71
2022/10/14 00:41:22;;;;;;;29.17;18.88;;;9.00;99.90;;;;;;5116058;28;20027;-75
2022/10/14 00:43:58;;;;;;;30.42;19.52;;;9.00;99.90;;;;;;5114855;28;20030;-71
2022/10/14 00:46:26;;;;;;;32.22;18.73;;;9.00;99.90;;;;;;5096882;28;20024;-71
2022/10/14 00:48:52;;;;;;;37.60;19.42;;;9.00;99.90;;;;;;5097087;28;20488;-71
2022/10/14 00:51:19;;;;;;;27.70;18.98;;;9.00;99.90;;;;;;5096797;28;20397;-71
2022/10/14 00:53:45;;;;;;;29.08;17.17;;;9.00;99.90;;;;;;5096849;28;20185;-74
2022/10/14 00:56:14;;;;;;;30.65;19.75;;;9.00;99.90;;;;;;5095405;28;20097;-75
2022/10/14 00:58:40;;;;;;;31.10;18.20;;;9.00;99.90;;;;;;5096872;28;20024;-71
2022/10/14 01:01:06;;;;;;;31.15;18.65;;;9.00;99.90;;;;;;5096568;28;20027;-75
2022/10/14 01:03:32;;;;;;;32.75;20.17;;;9.00;99.90;;;;;;5096603;28;20020;-74
2022/10/14 01:06:33;;;;;;;36.05;20.65;;;8.90;99.90;;;;;;5096507;28;20387;-74
2022/10/14 01:09:16;;;;;;;34.05;20.45;;;9.00;99.90;;;;;;5096727;28;20111;-75
2022/10/14 01:12:26;;;;;;;33.25;20.95;;;9.00;99.90;;;;;;5096486;28;20028;-74
2022/10/14 01:14:58;;;;;;;30.08;19.30;;;9.00;99.90;;;;;;5054124;28;20082;-71
2022/10/14 01:17:45;;;;;;;32.20;19.00;;;9.00;99.90;;;;;;5085652;28;20115;-70
2022/10/14 01:20:25;;;;;;;29.50;17.55;;;9.00;99.90;;;;;;5076099;28;20032;-75
2022/10/14 01:23:20;;;;;;;32.70;19.65;;;8.90;99.90;;;;;;5074767;28;20088;-70
2022/10/14 01:25:55;;;;;;;37.60;22.60;;;8.80;99.90;;;;;;5079419;28;20027;-75
2022/10/14 01:28:37;;;;;;;30.52;19.17;;;8.90;99.90;;;;;;5116583;27;20035;-75
2022/10/14 01:31:08;;;;;;;34.88;21.20;;;8.80;99.90;;;;;;5109741;28;20039;-75
2022/10/14 01:33:40;;;;;;;34.55;21.45;;;8.80;99.90;;;;;;5094820;28;20023;-74
2022/10/14 01:36:17;;;;;;;36.80;20.38;;;8.90;99.90;;;;;;5096084;28;20448;-75
2022/10/14 01:38:55;;;;;;;33.42;20.63;;;8.90;99.90;;;;;;5094855;28;20034;-74
2022/10/14 01:41:24;;;;;;;33.67;20.38;;;8.90;99.90;;;;;;5094732;28;20408;-74
2022/10/14 01:43:51;;;;;;;32.78;19.33;;;8.90;99.90;;;;;;5098120;28;20038;-74
2022/10/14 01:46:20;;;;;;;33.67;20.38;;;8.90;99.90;;;;;;5116090;28;20487;-71
2022/10/14 01:48:50;;;;;;;31.23;19.40;;;8.90;99.90;;;;;;5114973;28;20051;-74
2022/10/14 01:51:25;;;;;;;35.28;20.25;;;8.90;99.90;;;;;;5114774;28;20361;-71
2022/10/14 01:54:11;;;;;;;36.35;21.92;;;8.90;99.90;;;;;;5114883;28;20020;-71
2022/10/14 01:56:38;;;;;;;35.90;20.48;;;8.90;99.90;;;;;;5116094;28;20047;-71
2022/10/14 01:59:05;;;;;;;32.70;20.58;;;8.90;99.90;;;;;;5115999;28;20020;-75
2022/10/14 02:01:31;;;;;;;33.63;20.75;;;8.90;99.90;;;;;;5114578;28;20079;-71
2022/10/14 02:03:56;;;;;;;35.53;20.02;;;8.80;99.90;;;;;;5114675;28;20110;-75
2022/10/14 02:06:32;;;;;;;34.30;19.40;;;8.90;99.90;;;;;;5115619;28;20095;-74
2022/10/14 02:08:58;;;;;;;32.90;20.45;;;8.90;99.90;;;;;;5115908;28;20038;-71
2022/10/14 02:11:23;;;;;;;37.90;21.25;;;8.80;99.90;;;;;;5115667;28;20381;-74
2022/10/14 02:13:49;;;;;;;33.10;22.08;;;8.80;99.90;;;;;;5114260;28;20019;-71
2022/10/14 02:16:48;;;;;;;34.03;22.42;;;8.90;99.90;;;;;;5102679;28;20039;-71
2022/10/14 02:19:37;;;;;;;34.03;21.15;;;8.90;99.90;;;;;;5093956;28;20036;-74
2022/10/14 02:22:11;;;;;;;32.08;20.27;;;8.90;99.90;;;;;;5113195;28;20103;-71
2022/10/14 02:24:41;;;;;;;39.58;20.20;;;8.90;99.90;;;;;;5115689;28;20020;-71
2022/10/14 02:27:12;;;;;;;33.47;21.50;;;8.90;99.90;;;;;;5115365;28;20031;-71
2022/10/14 02:29:41;;;;;;;35.05;21.27;;;8.80;99.90;;;;;;5115524;28;20067;-71
2022/10/14 02:32:08;;;;;;;39.20;20.85;;;8.80;99.90;;;;;;5099253;28;20110;-75
2022/10/14 02:34:35;;;;;;;34.88;21.13;;;8.80;99.90;;;;;;5094295;28;20044;-75
2022/10/14 02:37:03;;;;;;;32.75;20.45;;;8.80;99.90;;;;;;5094881;28;20089;-74
2022/10/14 02:39:36;;;;;;;33.95;22.23;;;8.80;99.90;;;;;;5094798;28;20501;-74
2022/10/14 02:42:02;;;;;;;;;;;8.80;99.90;;;;;;5095153;28;20043;-71
2022/10/14 02:44:28;;;;;;;41.00;21.90;;;8.80;99.90;;;;;;5094626;28;19904;-70
2022/10/14 02:46:55;;;;;;;38.00;21.70;;;8.80;99.90;;;;;;5095866;28;20057;-75
2022/10/14 02:49:20;;;;;;;31.88;21.67;;;8.80;99.90;;;;;;5113542;28;20115;-71
2022/10/14 02:51:46;;;;;;;37.50;22.83;;;8.80;99.90;;;;;;5114580;28;20105;-74
2022/10/14 02:54:12;;;;;;;44.47;23.83;;;8.80;99.90;;;;;;5113430;28;20016;-71
2022/10/14 02:56:37;;;;;;;36.42;23.23;;;8.80;99.90;;;;;;5114389;28;20112;-71
2022/10/14 02:59:03;;;;;;;37.25;23.33;;;8.80;99.90;;;;;;5114677;28;20019;-75
2022/10/14 03:01:28;;;;;;;37.08;22.10;;;8.80;99.90;;;;;;5114730;28;20507;-74
2022/10/14 03:03:54;;;;;;;34.95;22.45;;;8.80;99.90;;;;;;5114418;28;20068;-71
2022/10/14 03:06:20;;;;;;;35.22;21.17;;;8.80;99.90;;;;;;5114525;28;20055;-74
2022/10/14 03:08:45;;;;;;;40.10;22.50;;;8.80;99.90;;;;;;5113325;28;20032;-74
2022/10/14 03:11:11;;;;;;;37.50;21.67;;;8.80;99.90;;;;;;5114471;28;20027;-71
2022/10/14 03:13:36;;;;;;;37.00;21.88;;;8.80;99.90;;;;;;5113275;28;20114;-74
2022/10/14 03:16:02;;;;;;;36.50;22.25;;;8.80;99.90;;;;;;5102873;28;20144;-71
2022/10/14 03:18:28;;;;;;;39.10;21.70;;;8.90;99.90;;;;;;5092716;28;20035;-72
2022/10/14 03:20:53;;;;;;;40.22;21.35;;;8.90;99.90;;;;;;5102118;28;20028;-75
2022/10/14 03:23:19;;;;;;;36.40;21.92;;;8.80;99.90;;;;;;5113053;28;20148;-71
2022/10/14 03:25:45;;;;;;;36.03;22.20;;;8.80;99.90;;;;;;5114399;28;20024;-72
2022/10/14 03:28:11;;;;;;;38.22;21.50;;;8.80;99.90;;;;;;5112841;28;20042;-71
2022/10/14 03:30:37;;;;;;;38.60;22.63;;;8.80;99.90;;;;;;5110612;28;20424;-74
2022/10/14 03:33:03;;;;;;;40.88;24.20;;;8.80;99.90;;;;;;5093829;28;20027;-71
2022/10/14 03:35:29;;;;;;;33.60;20.77;;;8.80;99.90;;;;;;5092326;28;20052;-71
2022/10/14 03:37:55;;;;;;;39.67;22.52;;;8.80;99.90;;;;;;5093756;28;20152;-74
2022/10/14 03:40:21;;;;;;;37.47;22.35;;;8.80;99.90;;;;;;5093756;28;20032;-74
2022/10/14 03:42:47;;;;;;;38.63;23.65;;;8.80;99.90;;;;;;5093739;28;20023;-74
2022/10/14 03:45:12;;;;;;;36.15;23.73;;;8.80;99.90;;;;;;5093073;28;20097;-71
2022/10/14 03:47:38;;;;;;;36.22;23.05;;;8.80;99.90;;;;;;5093595;28;20032;-75
2022/10/14 03:50:04;;;;;;;42.50;24.27;;;8.80;99.90;;;;;;5092192;28;20025;-74
2022/10/14 03:52:30;;;;;;;39.88;22.70;;;8.80;99.90;;;;;;5093709;28;20043;-71
2022/10/14 03:54:56;;;;;;;38.38;24.40;;;8.80;99.90;;;;;;5093702;28;20044;-74
2022/10/14 03:57:22;;;;;;;39.08;22.63;;;8.80;99.90;;;;;;5100059;28;20436;-71
2022/10/14 03:59:48;;;;;;;38.50;22.45;;;8.80;99.90;;;;;;5113839;28;20103;-71
2022/10/14 04:02:14;;;;;;;38.67;23.42;;;8.90;99.90;;;;;;5114002;28;20016;-71
2022/10/14 04:04:39;;;;;;;37.15;23.73;;;8.80;99.90;;;;;;5113842;28;20023;-70
2022/10/14 04:07:05;;;;;;;41.78;23.33;;;8.90;99.90;;;;;;5113823;28;20055;-72
2022/10/14 04:09:30;;;;;;;37.53;22.90;;;8.90;99.90;;;;;;5104743;28;20031;-74
2022/10/14 04:11:56;;;;;;;38.40;24.38;;;8.90;99.90;;;;;;5093533;28;20473;-75
2022/10/14 04:14:23;;;;;;;38.45;22.75;;;8.90;99.90;;;;;;5093445;28;20077;-75
2022/10/14 04:16:48;;;;;;;39.15;23.02;;;8.90;99.90;;;;;;5093297;28;20481;-71
2022/10/14 04:19:14;;;;;;;38.42;24.13;;;8.90;99.90;;;;;;5092029;28;20031;-75
2022/10/14 04:21:40;;;;;;;37.95;23.70;;;8.90;99.90;;;;;;5092064;28;20097;-74
2022/10/14 04:24:05;;;;;;;36.85;23.48;;;8.90;99.90;;;;;;5093332;28;20021;-74
2022/10/14 04:26:31;;;;;;;38.30;23.27;;;8.90;99.90;;;;;;5093162;28;20397;-70
2022/10/14 04:28:57;;;;;;;38.83;22.70;;;8.90;99.90;;;;;;5091990;28;20024;-71
2022/10/14 04:31:22;;;;;;;41.97;22.65;;;8.90;99.90;;;;;;5102257;28;20107;-71
2022/10/14 04:33:48;;;;;;;34.70;22.65;;;8.90;99.90;;;;;;5113517;28;20419;-71
2022/10/14 04:36:14;;;;;;;38.60;23.15;;;8.90;99.90;;;;;;5113420;28;20046;-74
2022/10/14 04:38:40;;;;;;;36.83;23.48;;;8.90;99.90;;;;;;5113545;28;20023;-71
2022/10/14 04:41:05;;;;;;;42.80;24.08;;;8.90;99.90;;;;;;5113532;28;20020;-72
2022/10/14 04:43:31;;;;;;;37.95;22.33;;;8.90;99.90;;;;;;5113489;28;20031;-71
2022/10/14 04:45:56;;;;;;;38.05;23.23;;;8.90;99.90;;;;;;5113503;28;20362;-71
2022/10/14 04:48:22;;;;;;;37.63;23.15;;;8.90;99.90;;;;;;5113452;28;20027;-74
2022/10/14 04:50:51;;;;;;;40.83;23.42;;;8.90;99.90;;;;;;5113387;28;20047;-71
2022/10/14 04:53:17;;;;;;;41.30;23.33;;;8.90;99.90;;;;;;5113565;28;20065;-71
2022/10/14 04:55:45;;;;;;;37.33;22.58;;;8.90;99.90;;;;;;5113337;28;20027;-71
2022/10/14 04:58:11;;;;;;;36.80;22.67;;;8.90;99.90;;;;;;5116381;28;20023;-71
2022/10/14 05:00:36;;;;;;;33.97;21.33;;;8.80;99.90;;;;;;5117226;28;20081;-71
2022/10/14 05:03:02;;;;;;;40.72;23.63;;;8.90;99.90;;;;;;5117171;28;20031;-74
2022/10/14 05:05:27;;;;;;;44.08;23.85;;;8.80;99.90;;;;;;5116981;28;20043;-71
2022/10/14 05:07:53;;;;;;;40.00;24.70;;;8.80;99.90;;;;;;5117055;28;20028;-71
2022/10/14 05:10:19;;;;;;;40.15;24.20;;;8.80;99.90;;;;;;5101619;28;20069;-71
2022/10/14 05:12:44;;;;;;;35.47;23.08;;;8.80;99.90;;;;;;5096645;28;20059;-74
2022/10/14 05:15:11;;;;;;;38.55;23.30;;;8.80;99.90;;;;;;5094998;28;20024;-71
2022/10/14 05:17:38;;;;;;;38.58;23.27;;;8.80;99.90;;;;;;5096431;28;20024;-74
2022/10/14 05:20:04;;;;;;;42.80;24.40;;;8.80;99.90;;;;;;5094966;28;20058;-70
2022/10/14 05:22:30;;;;;;;40.63;24.35;;;8.80;99.90;;;;;;5096252;28;20454;-71
2022/10/14 05:24:55;;;;;;;37.70;22.10;;;8.90;99.90;;;;;;5096124;28;20048;-74
2022/10/14 05:27:21;;;;;;;38.13;24.30;;;8.90;99.90;;;;;;5096186;28;20039;-74
2022/10/14 05:29:47;;;;;;;40.58;25.65;;;8.90;99.90;;;;;;5096123;28;20028;-74
2022/10/14 05:32:14;;;;;;;39.33;23.48;;;8.90;99.90;;;;;;5113964;28;20020;-74
2022/10/14 05:34:39;;;;;;;40.90;24.23;;;8.90;99.90;;;;;;5116335;28;20071;-75
2022/10/14 05:37:05;;;;;;;34.63;21.60;;;9.00;99.90;;;;;;5116507;28;20090;-72
2022/10/14 05:39:31;;;;;;;37.83;23.00;;;9.00;99.90;;;;;;5116293;28;20038;-71
2022/10/14 05:41:56;;;;;;;39.92;24.45;;;9.10;99.90;;;;;;5115089;28;20024;-71
2022/10/14 05:44:22;;;;;;;37.97;22.85;;;9.10;99.90;;;;;;5116339;28;20019;-74
2022/10/14 05:46:47;;;;;;;39.58;24.92;;;9.20;99.90;;;;;;5114806;28;20030;-74
2022/10/14 05:49:13;;;;;;;38.22;25.33;;;9.20;99.90;;;;;;5116424;27;20604;-74
2022/10/14 05:51:39;;;;;;;41.63;22.65;;;9.30;99.90;;;;;;5115783;28;20031;-70
2022/10/14 05:54:05;;;;;;;37.45;24.00;;;9.30;99.90;;;;;;5116224;28;20047;-75
2022/10/14 05:56:30;;;;;;;39.30;23.13;;;9.40;99.90;;;;;;5114697;28;20023;-71
2022/10/14 05:58:56;;;;;;;33.58;22.88;;;9.50;99.90;;;;;;5115910;28;20084;-72
2022/10/14 06:01:22;;;;;;;37.80;23.88;;;9.50;99.90;;;;;;5115853;28;20090;-70
2022/10/14 06:03:51;;;;;;;36.33;22.95;;;9.60;99.90;;;;;;5109099;28;20027;-74
2022/10/14 06:06:17;;;;;;;40.92;24.70;;;9.70;99.90;;;;;;5095390;28;20028;-71
2022/10/14 06:08:43;;;;;;;39.80;24.33;;;9.80;99.90;;;;;;5094773;28;20581;-74
2022/10/14 06:11:09;;;;;;;37.13;21.75;;;9.80;99.90;;;;;;5095239;28;20111;-71
2022/10/14 06:13:35;;;;;;;35.75;21.60;;;9.90;99.90;;;;;;5095385;28;20052;-71
2022/10/14 06:16:05;;;;;;;35.25;22.38;;;10.00;99.90;;;;;;5095057;28;20065;-74
2022/10/14 06:18:31;;;;;;;41.83;23.08;;;10.10;99.90;;;;;;5082278;28;20033;-70
2022/10/14 06:20:57;;;;;;;37.03;23.45;;;10.20;99.90;;;;;;5112943;28;20030;-71
2022/10/14 06:23:22;;;;;;;31.20;20.67;;;10.20;99.90;;;;;;5112298;28;20319;-70
2022/10/14 06:25:48;;;;;;;36.75;21.55;;;10.30;99.90;;;;;;5109627;28;20070;-74
2022/10/14 06:28:13;;;;;;;32.22;21.85;;;10.40;99.90;;;;;;5110631;27;20032;-70
2022/10/14 06:30:39;;;;;;;36.63;21.05;;;10.50;99.90;;;;;;5108150;28;20024;-75
2022/10/14 06:33:05;;;;;;;38.30;21.95;;;10.50;99.90;;;;;;5109854;28;20172;-70
2022/10/14 06:35:30;;;;;;;31.23;20.70;;;10.60;99.90;;;;;;5110344;27;20051;-75
2022/10/14 06:37:56;;;;;;;31.92;20.23;;;10.60;99.90;;;;;;5099789;28;20100;-75
2022/10/14 06:40:22;;;;;;;31.17;20.75;;;10.70;99.90;;;;;;5113408;27;20111;-75
2022/10/14 06:42:47;;;;;;;29.38;19.10;;;10.70;99.90;;;;;;5113014;28;20051;-70
2022/10/14 06:45:13;;;;;;;32.95;19.75;;;10.80;99.90;;;;;;5113113;28;20036;-72
2022/10/14 06:47:39;;;;;;;33.97;20.88;;;10.80;99.90;;;;;;5113742;28;20042;-70
2022/10/14 06:50:05;;;;;;;30.20;19.17;;;10.90;99.90;;;;;;5105884;28;20504;-70
2022/10/14 06:52:30;;;;;;;32.03;19.98;;;11.00;99.90;;;;;;5103030;28;20024;-75
2022/10/14 06:54:56;;;;;;;31.58;21.55;;;11.00;99.90;;;;;;5111893;28;20038;-75
2022/10/14 06:57:22;;;;;;;32.47;20.15;;;11.10;99.90;;;;;;5113154;28;20020;-75
2022/10/14 06:59:47;;;;;;;28.33;20.33;;;11.10;99.90;;;;;;5112289;28;20040;-71
2022/10/14 07:02:13;;;;;;;32.58;19.38;;;11.10;99.90;;;;;;5101693;28;20066;-75
2022/10/14 07:04:39;;;;;;;33.15;19.35;;;11.20;99.90;;;;;;5109567;28;20085;-75
2022/10/14 07:07:06;;;;;;;33.92;19.48;;;11.20;99.90;;;;;;5112877;28;20039;-75
2022/10/14 07:09:31;;;;;;;36.35;20.30;;;11.30;99.90;;;;;;5112433;28;20115;-76
2022/10/14 07:11:57;;;;;;;30.95;20.15;;;11.30;99.90;;;;;;5111616;28;20102;-75
2022/10/14 07:14:22;;;;;;;33.83;21.00;;;11.30;99.90;;;;;;5111976;28;20028;-75
2022/10/14 07:16:48;;;;;;;31.20;20.05;;;11.30;99.90;;;;;;5091552;28;20493;-70
2022/10/14 07:19:14;;;;;;;26.80;18.90;;;11.30;99.90;;;;;;5097422;27;20092;-71
2022/10/14 07:21:41;;;;;;;30.73;19.00;;;11.30;99.90;;;;;;5109430;28;20473;-75
2022/10/14 07:24:08;;;;;;;30.60;20.50;;;11.40;99.90;;;;;;5102592;28;20173;-72
2022/10/14 07:26:33;;;;;;;32.65;20.35;;;11.40;99.90;;;;;;5100443;28;20048;-71
2022/10/14 07:28:59;;;;;;;36.83;20.17;;;11.40;99.90;;;;;;5092359;27;20524;-71
2022/10/14 07:31:25;;;;;;;35.00;21.00;;;11.50;99.90;;;;;;5103656;28;20031;-74
2022/10/14 07:33:50;;;;;;;37.90;21.73;;;11.50;99.90;;;;;;5104186;28;20035;-70
2022/10/14 07:36:17;;;;;;;30.60;18.92;;;11.50;99.90;;;;;;5110317;28;20127;-75
2022/10/14 07:38:44;;;;;;;29.48;19.33;;;11.50;99.90;;;;;;5110803;28;20434;-70
2022/10/14 07:41:17;;;;;;;29.77;19.70;;;11.50;99.90;;;;;;5111418;28;20035;-75
2022/10/14 07:43:48;;;;;;;31.17;19.70;;;11.50;99.90;;;;;;5111119;28;20040;-70
2022/10/14 07:46:16;;;;;;;31.00;20.42;;;11.50;99.90;;;;;;5106710;28;20038;-71
2022/10/14 07:48:42;;;;;;;32.15;20.98;;;11.60;99.90;;;;;;5100203;28;20036;-75
2022/10/14 07:51:08;;;;;;;29.85;19.63;;;11.60;99.90;;;;;;5113148;27;20046;-74
2022/10/14 07:53:35;;;;;;;30.17;19.33;;;11.60;99.90;;;;;;5105891;28;20376;-72
2022/10/14 07:56:01;;;;;;;32.40;21.00;;;11.70;99.90;;;;;;5093543;28;20063;-72
2022/10/14 07:58:29;;;;;;;33.88;20.33;;;11.70;99.90;;;;;;5093557;28;20055;-74
2022/10/14 08:00:56;;;;;;;34.47;20.58;;;11.80;99.90;;;;;;5092602;28;20028;-74
2022/10/14 08:03:22;;;;;;;31.42;20.35;;;11.80;99.90;;;;;;5093438;28;20474;-74
2022/10/14 08:05:49;;;;;;;33.28;20.70;;;11.90;99.90;;;;;;5093470;28;20477;-74
2022/10/14 08:08:16;;;;;;;33.92;21.02;;;12.00;99.90;;;;;;5093386;28;20039;-71
2022/10/14 08:10:42;;;;;;;30.70;20.38;;;12.10;99.90;;;;;;5093509;28;20154;-70
2022/10/14 08:13:09;;;;;;;32.70;20.48;;;12.10;99.90;;;;;;5093415;28;20020;-74
2022/10/14 08:15:39;;;;;;;32.15;20.65;;;12.20;99.90;;;;;;5093354;28;20024;-71
2022/10/14 08:18:08;;;;;;;29.13;19.90;;;12.30;99.90;;;;;;5093681;28;20358;-71
2022/10/14 08:20:34;;;;;;;31.90;20.20;;;12.40;99.90;;;;;;5093376;28;20412;-69
2022/10/14 08:23:00;;;;;;;35.22;20.75;;;12.50;99.90;;;;;;5093277;28;20107;-72
2022/10/14 08:25:26;;;;;;;31.63;20.00;;;12.60;99.90;;;;;;5091912;28;20111;-68
2022/10/14 08:27:53;;;;;;;29.75;17.90;;;12.70;99.90;;;;;;5093143;28;20032;-72
2022/10/14 08:30:19;;;;;;;27.35;18.35;;;12.80;99.90;;;;;;5093228;28;20028;-72
2022/10/14 08:32:45;;;;;;;30.95;20.20;;;13.00;99.90;;;;;;5095571;28;20048;-72
2022/10/14 08:35:11;;;;;;;31.55;19.90;;;13.20;99.90;;;;;;5095608;28;20051;-72
2022/10/14 08:37:37;;;;;;;33.85;20.45;;;13.30;99.90;;;;;;5097176;28;20020;-72
2022/10/14 08:40:04;;;;;;;29.85;19.33;;;13.40;99.90;;;;;;5097135;28;20028;-68
2022/10/14 08:42:32;;;;;;;31.38;20.77;;;13.50;99.90;;;;;;5097062;28;20397;-68
2022/10/14 08:45:09;;;;;;;32.08;18.98;;;13.60;99.90;;;;;;5097024;28;20391;-71
2022/10/14 08:47:41;;;;;;;29.23;19.13;;;13.70;99.90;;;;;;5096771;28;20032;-72
2022/10/14 08:50:27;;;;;;;26.85;18.50;;;13.70;99.90;;;;;;5097081;28;20070;-71
2022/10/14 08:52:57;;;;;;;26.77;17.17;;;13.80;99.90;;;;;;5097171;28;20363;-71
2022/10/14 08:55:47;;;;;;;26.38;17.40;;;13.80;99.90;;;;;;5096790;28;20028;-68
2022/10/14 08:58:27;;;;;;;20.90;16.55;;;13.90;99.90;;;;;;5106476;28;20012;-68
2022/10/14 09:00:54;;;;;;;25.70;17.60;;;14.00;99.90;;;;;;5115943;28;20020;-68
2022/10/14 09:03:31;;;;;;;24.00;16.45;;;14.00;99.90;;;;;;5117004;28;20106;-71
2022/10/14 09:06:00;;;;;;;26.23;16.98;;;14.10;99.90;;;;;;5115875;28;20477;-67
2022/10/14 09:08:34;;;;;;;23.35;16.90;;;14.10;99.90;;;;;;5116857;28;20070;-68
2022/10/14 09:11:00;;;;;;;33.10;18.83;;;14.10;99.90;;;;;;5115772;28;20046;-71
2022/10/14 09:13:37;;;;;;;25.67;17.00;;;14.10;99.90;;;;;;5117020;28;20422;-69
2022/10/14 09:16:14;;;;;;;23.15;15.45;;;14.10;99.90;;;;;;5103233;28;20027;-71
2022/10/14 09:18:53;;;;;;;27.23;18.13;;;14.10;99.90;;;;;;5096347;28;20024;-71
2022/10/14 09:21:36;;;;;;;25.92;17.05;;;14.10;99.90;;;;;;5096196;28;20024;-67
2022/10/14 09:24:19;;;;;;;29.58;18.23;;;14.10;99.90;;;;;;5096261;28;20020;-71
2022/10/14 09:26:47;;;;;;;30.05;17.17;;;14.10;99.90;;;;;;5096188;28;20500;-71
2022/10/14 09:29:37;;;;;;;35.40;18.77;;;14.10;99.90;;;;;;5096013;28;20032;-71
2022/10/14 09:32:10;;;;;;;28.77;18.70;;;14.10;99.90;;;;;;5113848;28;20111;-68
2022/10/14 09:34:46;;;;;;;29.23;17.92;;;14.00;99.90;;;;;;5116246;28;20044;-68
2022/10/14 09:37:30;;;;;;;27.02;18.88;;;14.00;99.90;;;;;;5116536;27;20048;-71
2022/10/14 09:40:12;;;;;;;31.38;19.13;;;14.10;99.90;;;;;;5116479;28;20068;-68
2022/10/14 09:43:01;;;;;;;35.40;19.50;;;14.10;99.90;;;;;;5116415;28;20380;-68
2022/10/14 09:45:56;;;;;;;32.13;18.60;;;14.20;99.90;;;;;;5115797;28;20469;-68
2022/10/14 09:48:47;;;;;;;28.35;19.25;;;14.20;99.90;;;;;;5111827;28;20048;-72
2022/10/14 09:51:30;;;;;;;35.85;18.38;;;14.20;99.90;;;;;;5107882;28;20031;-72
2022/10/14 09:54:01;;;;;;;31.48;18.85;;;14.20;99.90;;;;;;5115979;27;20027;-72
2022/10/14 09:56:41;;;;;;;29.02;18.45;;;14.20;99.90;;;;;;5115895;28;20362;-72
2022/10/14 09:59:19;;;;;;;30.15;19.10;;;14.20;99.90;;;;;;5116058;28;20012;-74
2022/10/14 10:01:51;;;;;;;27.90;18.60;;;14.30;99.90;;;;;;5116033;28;20027;-74
2022/10/14 10:04:30;;;;;;;27.77;17.80;;;14.40;99.90;;;;;;5115818;28;20481;-74
2022/10/14 10:06:58;;;;;;;28.00;18.40;;;14.40;99.90;;;;;;5115968;28;20468;-74
2022/10/14 10:09:25;;;;;;;31.50;18.65;;;14.50;99.90;;;;;;5115817;28;20156;-70
2022/10/14 10:11:51;;;;;;;28.58;19.20;;;14.50;99.90;;;;;;5115859;28;20142;-71
2022/10/14 10:14:22;;;;;;;28.67;17.55;;;14.50;99.90;;;;;;5115692;28;20094;-71
2022/10/14 10:16:49;;;;;;;32.53;18.85;;;14.60;99.90;;;;;;5096725;28;20051;-74
2022/10/14 10:19:33;;;;;;;29.23;18.77;;;14.70;99.90;;;;;;5095186;28;20488;-74
2022/10/14 10:22:21;;;;;;;27.23;18.08;;;14.80;99.90;;;;;;5095285;28;20028;-74
2022/10/14 10:24:48;;;;;;;27.35;17.88;;;14.90;99.90;;;;;;5074916;28;20111;-70
2022/10/14 10:27:27;;;;;;;24.95;16.83;;;15.10;99.90;;;;;;5074744;28;20037;-74
2022/10/14 10:29:55;;;;;;;28.60;16.23;;;15.10;99.90;;;;;;5074773;28;20024;-74
2022/10/14 10:32:34;;;;;;;30.73;16.55;;;15.20;99.90;;;;;;5074771;28;20029;-74
2022/10/14 10:35:23;;;;;;;28.33;17.88;;;15.20;99.90;;;;;;5074593;28;20053;-71
2022/10/14 10:38:19;;;;;;;27.73;18.02;;;15.40;99.90;;;;;;5073408;28;20070;-74
2022/10/14 10:41:08;;;;;;;25.60;17.60;;;15.50;99.90;;;;;;5074263;28;20041;-71
2022/10/14 10:44:15;;;;;;;25.20;17.30;;;15.50;99.90;;;;;;5087781;28;20078;-74
2022/10/14 10:46:59;;;;;;;27.33;18.58;;;15.40;99.90;;;;;;5073484;28;20024;-74
2022/10/14 10:49:56;;;;;;;26.83;18.33;;;15.50;99.90;;;;;;5074161;28;20059;-74
2022/10/14 10:52:40;;;;;;;25.58;16.85;;;15.60;99.90;;;;;;5073253;28;20473;-70
2022/10/14 10:55:24;;;;;;;23.75;16.85;;;15.70;99.90;;;;;;5073913;28;20036;-74
2022/10/14 10:57:58;;;;;;;25.63;16.52;;;15.80;99.90;;;;;;5074355;28;20394;-70
2022/10/14 11:00:24;;;;;;;27.52;17.25;;;15.80;99.90;;;;;;5074182;28;20116;-70
2022/10/14 11:02:56;;;;;;;26.95;17.65;;;15.70;99.50;;;;;;5072930;28;20474;-71
2022/10/14 11:05:39;;;;;;;25.83;17.27;;;15.70;99.90;;;;;;5072756;28;20449;-73
2022/10/14 11:14:27;;;;;;;28.90;17.67;;;15.80;99.20;;;;;;5071380;28;20111;-71
2022/10/14 11:17:12;;;;;;;26.70;16.42;;;15.80;99.20;;;;;;5093789;28;20052;-74
2022/10/14 11:20:09;;;;;;;25.40;16.42;;;15.80;99.50;;;;;;5093025;28;20512;-74
2022/10/14 11:22:49;;;;;;;22.90;16.40;;;15.80;99.70;;;;;;5094241;28;20024;-70
2022/10/14 11:25:30;;;;;;;25.48;16.83;;;15.90;99.90;;;;;;5094103;28;20027;-70
2022/10/14 11:28:04;;;;;;;22.30;17.10;;;16.00;99.90;;;;;;5094077;28;20405;-70
2022/10/14 11:30:42;;;;;;;25.55;16.95;;;16.00;99.40;;;;;;5092671;28;20465;-70
2022/10/14 11:33:15;;;;;;;24.17;16.90;;;16.10;99.10;;;;;;5093993;28;20099;-70
2022/10/14 11:35:52;;;;;;;25.25;15.73;;;16.10;99.30;;;;;;5093908;28;20507;-74
2022/10/14 11:38:47;;;;;;;24.58;16.52;;;16.10;97.80;;;;;;5092678;28;20028;-70
2022/10/14 11:41:50;;;;;;;25.25;16.70;;;16.20;97.90;;;;;;5093606;28;20031;-71
2022/10/14 11:44:27;;;;;;;24.92;16.65;;;16.30;98.00;;;;;;5093895;28;20023;-70
2022/10/14 11:46:57;;;;;;;24.75;17.45;;;16.30;96.10;;;;;;5093742;28;20118;-71
2022/10/14 11:49:30;;;;;;;24.73;17.40;;;16.10;94.80;;;;;;5093977;28;20081;-70
2022/10/14 11:52:06;;;;;;;27.20;17.63;;;16.10;96.90;;;;;;5111863;28;20020;-72
2022/10/14 11:54:37;;;;;;;30.52;18.20;;;16.00;96.70;;;;;;5114176;28;20099;-71
2022/10/14 11:57:17;;;;;;;26.48;17.30;;;15.90;97.80;;;;;;5113990;28;20127;-75
2022/10/14 12:00:16;;;;;;;26.02;17.17;;;15.80;98.10;;;;;;5114174;28;20019;-71
2022/10/14 12:03:12;;;;;;;27.25;17.05;;;15.90;99.90;;;;;;5113972;28;20024;-74
2022/10/14 12:05:43;;;;;;;30.63;18.23;;;15.80;99.90;;;;;;5113874;28;20020;-70
2022/10/14 12:08:29;;;;;;;28.10;17.52;;;16.10;99.90;;;;;;5117159;28;20046;-70
2022/10/14 12:11:01;;;;;;;32.45;17.95;;;16.10;99.90;;;;;;5118451;27;20102;-70
2022/10/14 12:13:46;;;;;;;26.67;17.58;;;16.10;99.10;;;;;;5118161;28;20023;-70
2022/10/14 12:16:15;;;;;;;32.47;20.80;;;16.00;99.40;;;;;;5103286;28;20020;-74
2022/10/14 12:18:43;;;;;;;25.42;17.95;;;16.10;98.80;;;;;;5097681;28;20023;-73
2022/10/14 12:21:16;;;;;;;27.92;18.23;;;16.10;97.10;;;;;;5097357;28;20028;-74
2022/10/14 12:23:50;;;;;;;29.50;18.15;;;16.10;98.10;;;;;;5097625;28;20501;-70
2022/10/14 12:26:18;;;;;;;28.77;18.63;;;16.10;97.90;;;;;;5097437;28;20157;-74
2022/10/14 12:28:45;;;;;;;26.77;18.05;;;16.00;97.10;;;;;;5097423;28;20036;-75
2022/10/14 12:31:35;;;;;;;27.60;18.80;;;15.90;98.30;;;;;;5097353;28;20032;-70
2022/10/14 12:34:10;;;;;;;26.67;18.27;;;16.00;99.90;;;;;;5097026;28;20095;-75
2022/10/14 12:36:37;;;;;;;29.38;16.80;;;15.90;99.90;;;;;;5097197;28;20028;-71
2022/10/14 12:39:18;;;;;;;29.20;16.80;;;15.90;99.90;;;;;;5097200;28;20054;-71
2022/10/14 12:42:09;;;;;;;30.90;20.38;;;15.80;99.90;;;;;;5097080;28;20052;-74
2022/10/14 12:44:57;;;;;;;33.65;19.35;;;15.80;99.90;;;;;;5095850;28;20016;-72
2022/10/14 12:47:34;;;;;;;28.75;18.85;;;15.80;99.90;;;;;;5096953;28;20436;-70
2022/10/14 12:50:24;;;;;;;30.83;19.42;;;15.80;99.90;;;;;;5095731;28;20024;-71
2022/10/14 12:52:59;;;;;;;27.73;17.85;;;15.80;99.90;;;;;;5097004;28;20032;-71
2022/10/14 12:55:28;;;;;;;27.85;17.67;;;15.80;99.90;;;;;;5095493;28;20023;-71
2022/10/14 12:58:03;;;;;;;30.20;17.40;;;15.80;99.90;;;;;;5096780;28;20095;-71
2022/10/14 13:00:38;;;;;;;29.60;18.00;;;15.80;99.90;;;;;;5095502;28;20017;-74